Time;durP1;ratioP1;P1;durP2;ratioP2;P2;SDS_P1;SDS_P2;PMS_P1;PMS_P2;Temp;Humidity;BMP_temperature;BMP_pressure;BME280_temperature;BME280_humidity;BME280_pressure;Samples;Min_cycle;Max_cycle;Signal;HPM_P1;HPM_P2
2023/04/22 00:02:25;;;;;;;49.78;18.00;;;6.80;99.90;;;;;;5048165;28;20048;-59
2023/04/22 00:04:53;;;;;;;41.33;18.65;;;6.70;99.90;;;;;;5029960;28;20045;-58
2023/04/22 00:07:21;;;;;;;46.38;18.25;;;6.70;99.90;;;;;;5047756;28;20056;-58
2023/04/22 00:09:49;;;;;;;42.75;16.67;;;6.70;99.90;;;;;;5008896;28;20042;-59
2023/04/22 00:12:17;;;;;;;36.60;16.27;;;6.60;99.90;;;;;;5034758;28;20064;-58
2023/04/22 00:14:44;;;;;;;38.67;16.25;;;6.50;99.90;;;;;;5046761;28;20366;-64
2023/04/22 00:17:12;;;;;;;37.88;16.92;;;6.50;99.90;;;;;;5047954;28;20523;-58
2023/04/22 00:19:40;;;;;;;41.17;17.08;;;6.40;99.90;;;;;;5040565;28;20041;-59
2023/04/22 00:22:08;;;;;;;44.97;16.90;;;6.40;99.90;;;;;;5028043;28;20052;-58
2023/04/22 00:24:35;;;;;;;54.05;16.73;;;6.30;99.90;;;;;;5024174;28;20045;-59
2023/04/22 00:27:03;;;;;;;38.70;16.65;;;6.20;99.90;;;;;;5010719;28;20072;-59
2023/04/22 00:29:31;;;;;;;37.20;15.80;;;6.20;99.90;;;;;;5037821;28;20508;-59
2023/04/22 00:32:04;;;;;;;45.85;16.10;;;6.10;99.90;;;;;;5028079;28;20592;-59
2023/04/22 00:34:32;;;;;;;42.92;17.15;;;6.10;99.90;;;;;;5043288;28;20052;-60
2023/04/22 00:37:00;;;;;;;41.25;16.35;;;6.10;99.90;;;;;;5046841;28;20049;-59
2023/04/22 00:39:28;;;;;;;44.15;18.33;;;6.00;99.90;;;;;;5038302;28;20045;-58
2023/04/22 00:42:00;;;;;;;43.75;16.83;;;6.00;99.90;;;;;;5010787;28;20421;-59
2023/04/22 00:44:28;;;;;;;37.60;16.63;;;5.90;99.90;;;;;;5021891;28;20596;-60
2023/04/22 00:46:56;;;;;;;48.20;18.73;;;5.80;99.90;;;;;;5010304;28;20176;-59
2023/04/22 00:49:26;;;;;;;42.00;18.60;;;5.80;99.90;;;;;;5004304;28;20045;-60
2023/04/22 00:51:54;;;;;;;;;;;5.80;99.90;;;;;;5028189;28;20056;-58
2023/04/22 00:54:22;;;;;;;45.33;17.77;;;5.70;99.90;;;;;;5043054;28;19932;-59
2023/04/22 00:56:49;;;;;;;37.75;18.10;;;5.70;99.90;;;;;;5010349;28;20513;-59
2023/04/22 00:59:17;;;;;;;47.60;17.00;;;5.70;99.90;;;;;;5023293;28;20608;-60
2023/04/22 01:01:45;;;;;;;45.92;17.52;;;5.50;99.90;;;;;;5045215;28;20060;-59
2023/04/22 01:04:14;;;;;;;37.55;15.70;;;5.60;99.90;;;;;;5043746;28;20049;-58
2023/04/22 01:06:44;;;;;;;42.72;17.60;;;5.50;99.90;;;;;;5044801;28;20520;-59
2023/04/22 01:09:15;;;;;;;46.25;18.30;;;5.50;99.90;;;;;;5047585;28;20397;-59
2023/04/22 01:11:43;;;;;;;48.88;19.60;;;5.40;99.90;;;;;;5031711;28;20500;-60
2023/04/22 01:14:11;;;;;;;38.10;16.73;;;5.40;99.90;;;;;;5025779;28;20045;-58
2023/04/22 01:16:42;;;;;;;47.78;17.80;;;5.40;99.90;;;;;;5013075;28;20057;-57
2023/04/22 01:19:10;;;;;;;50.35;18.70;;;5.30;99.90;;;;;;5047106;28;20045;-59
2023/04/22 01:21:40;;;;;;;43.97;17.95;;;5.20;99.90;;;;;;5039086;28;20052;-57
2023/04/22 01:24:08;;;;;;;47.97;17.25;;;5.30;99.90;;;;;;5030471;28;20405;-59
2023/04/22 01:26:37;;;;;;;48.63;18.73;;;;;;;;;;5014917;28;20042;-58
2023/04/22 01:29:05;;;;;;;48.35;19.17;;;5.30;99.90;;;;;;5024554;28;20539;-59
2023/04/22 01:31:33;;;;;;;40.40;17.65;;;;;;;;;;5023180;28;20065;-60
2023/04/22 01:34:01;;;;;;;48.42;19.10;;;5.30;99.90;;;;;;5034024;28;20057;-59
2023/04/22 01:36:32;;;;;;;52.28;19.23;;;5.20;99.90;;;;;;5054191;28;20045;-59
2023/04/22 01:39:00;;;;;;;49.92;19.13;;;5.20;99.90;;;;;;5054068;28;20037;-59
2023/04/22 01:41:31;;;;;;;45.03;18.23;;;5.20;99.90;;;;;;5044122;28;20049;-59
2023/04/22 01:44:00;;;;;;;42.25;17.48;;;5.10;99.90;;;;;;5000222;28;20056;-60
2023/04/22 01:46:34;;;;;;;43.63;17.30;;;5.20;99.90;;;;;;5023697;28;20044;-59
2023/04/22 01:49:05;;;;;;;50.00;19.27;;;5.10;99.90;;;;;;5053837;28;20049;-58
2023/04/22 01:51:35;;;;;;;51.63;18.85;;;5.10;99.90;;;;;;5050878;28;20049;-59
2023/04/22 01:54:03;;;;;;;54.08;20.05;;;5.10;99.90;;;;;;5021617;28;20076;-56
2023/04/22 01:56:30;;;;;;;49.60;18.42;;;5.10;99.90;;;;;;5047040;28;20048;-59
2023/04/22 01:58:58;;;;;;;44.95;19.15;;;5.10;99.90;;;;;;4999835;28;20045;-58
2023/04/22 02:01:28;;;;;;;47.00;18.45;;;5.10;99.90;;;;;;5018914;28;20037;-57
2023/04/22 02:03:55;;;;;;;54.55;18.92;;;5.20;99.90;;;;;;5033566;28;20516;-58
2023/04/22 02:06:23;;;;;;;58.08;19.45;;;5.20;99.90;;;;;;5000012;28;20507;-58
2023/04/22 02:08:50;;;;;;;60.58;22.48;;;5.20;99.90;;;;;;5034346;28;20046;-58
2023/04/22 02:11:18;;;;;;;49.75;21.25;;;5.20;99.90;;;;;;5051854;28;20045;-57
2023/04/22 02:13:46;;;;;;;55.97;20.08;;;5.20;99.90;;;;;;5043578;28;20612;-58
2023/04/22 02:16:13;;;;;;;53.03;20.10;;;5.30;99.90;;;;;;5026226;28;20391;-58
2023/04/22 02:18:41;;;;;;;57.55;22.77;;;5.20;99.90;;;;;;5015543;28;20076;-59
2023/04/22 02:21:09;;;;;;;58.85;21.70;;;5.30;99.90;;;;;;5033576;28;20064;-59
2023/04/22 02:23:38;;;;;;;49.20;20.50;;;5.30;99.90;;;;;;5035901;28;20060;-59
2023/04/22 02:26:07;;;;;;;60.22;21.60;;;5.30;99.90;;;;;;5048262;28;20048;-59
2023/04/22 02:28:35;;;;;;;54.57;22.70;;;5.30;99.90;;;;;;5053361;28;20514;-58
2023/04/22 02:31:02;;;;;;;56.55;21.27;;;5.20;99.90;;;;;;5048710;28;20298;-58
2023/04/22 02:33:32;;;;;;;53.85;22.48;;;5.20;99.90;;;;;;5043200;28;20381;-57
2023/04/22 02:36:02;;;;;;;60.28;24.05;;;5.20;99.90;;;;;;5052480;28;20063;-57
2023/04/22 02:38:30;;;;;;;53.60;21.60;;;5.20;99.90;;;;;;5015624;28;20045;-57
2023/04/22 02:40:57;;;;;;;54.17;21.58;;;5.20;99.90;;;;;;5051402;28;20467;-58
2023/04/22 02:43:25;;;;;;;57.55;22.70;;;5.20;99.90;;;;;;5035127;28;20040;-57
2023/04/22 02:45:53;;;;;;;58.03;23.17;;;5.20;99.90;;;;;;5031908;28;20049;-57
2023/04/22 02:48:21;;;;;;;59.35;23.23;;;5.10;99.90;;;;;;5016513;28;20055;-57
2023/04/22 02:50:50;;;;;;;67.53;24.20;;;5.10;99.90;;;;;;5041739;28;20041;-58
2023/04/22 02:53:17;;;;;;;59.47;23.37;;;5.10;99.90;;;;;;5032418;28;20075;-58
2023/04/22 02:55:45;;;;;;;59.65;20.30;;;5.10;99.90;;;;;;5030816;28;20773;-58
2023/04/22 02:58:13;;;;;;;54.90;21.65;;;5.10;99.90;;;;;;5039738;28;20046;-59
2023/04/22 03:00:40;;;;;;;56.28;23.38;;;5.10;99.90;;;;;;5020073;28;20060;-59
2023/04/22 03:03:08;;;;;;;67.07;24.40;;;5.00;99.90;;;;;;5051128;28;20056;-58
2023/04/22 03:05:36;;;;;;;68.93;25.08;;;5.00;99.90;;;;;;4998329;28;20050;-59
2023/04/22 03:08:04;;;;;;;67.95;23.85;;;5.00;99.90;;;;;;5014812;28;20493;-60
2023/04/22 03:10:32;;;;;;;62.53;25.15;;;4.60;99.90;;;;;;5029328;28;20033;-59
2023/04/22 03:13:00;;;;;;;71.80;27.50;;;4.90;99.90;;;;;;5033554;28;20535;-59
2023/04/22 03:15:29;;;;;;;64.53;24.02;;;5.00;99.90;;;;;;5015838;28;20037;-58
2023/04/22 03:17:57;;;;;;;64.00;26.48;;;5.00;99.90;;;;;;5050372;28;20408;-59
2023/04/22 03:20:24;;;;;;;77.88;26.08;;;5.00;99.90;;;;;;5031612;28;20052;-59
2023/04/22 03:22:53;;;;;;;67.65;25.83;;;4.90;99.90;;;;;;5033065;28;20037;-59
2023/04/22 03:25:22;;;;;;;65.90;26.13;;;5.00;99.90;;;;;;5034194;28;20049;-59
2023/04/22 03:27:54;;;;;;;75.85;26.98;;;5.10;99.90;;;;;;5034327;28;20052;-59
2023/04/22 03:30:21;;;;;;;77.72;27.63;;;5.10;99.90;;;;;;5033957;28;20495;-60
2023/04/22 03:32:49;;;;;;;73.97;27.08;;;5.10;99.90;;;;;;5028734;28;20044;-58
2023/04/22 03:35:40;;;;;;;65.25;26.65;;;5.20;99.90;;;;;;5043858;28;20057;-59
2023/04/22 03:38:07;;;;;;;70.38;27.30;;;5.30;99.90;;;;;;5033500;28;20059;-59
2023/04/22 03:40:37;;;;;;;66.97;24.05;;;5.30;99.90;;;;;;5034005;28;20528;-59
2023/04/22 03:43:15;;;;;;;64.22;26.02;;;5.40;99.90;;;;;;5033686;28;20056;-57
2023/04/22 03:45:50;;;;;;;69.45;24.75;;;5.40;99.90;;;;;;5019398;28;20041;-57
2023/04/22 03:48:22;;;;;;;65.00;26.23;;;5.50;99.90;;;;;;5016611;28;20052;-58
2023/04/22 03:50:52;;;;;;;59.45;23.77;;;5.50;99.90;;;;;;5026325;28;20053;-57
2023/04/22 03:53:20;;;;;;;67.28;25.60;;;5.50;99.90;;;;;;5033814;28;20633;-56
2023/04/22 03:55:48;;;;;;;56.70;22.88;;;5.60;99.90;;;;;;5064934;28;20381;-57
2023/04/22 03:58:17;;;;;;;58.00;24.77;;;5.60;99.90;;;;;;5053516;28;20041;-58
2023/04/22 04:00:47;;;;;;;61.90;23.85;;;5.60;99.90;;;;;;5052928;28;20045;-57
2023/04/22 04:03:16;;;;;;;64.20;24.85;;;5.80;99.90;;;;;;5050115;28;20052;-57
2023/04/22 04:05:48;;;;;;;58.65;23.92;;;5.70;99.90;;;;;;5060958;28;20044;-58
2023/04/22 04:08:15;;;;;;;65.05;27.00;;;5.80;99.90;;;;;;5060898;28;20049;-56
2023/04/22 04:10:43;;;;;;;60.08;23.85;;;5.80;99.90;;;;;;5069104;28;20044;-56
2023/04/22 04:13:12;;;;;;;62.53;25.33;;;5.90;99.90;;;;;;5066671;28;20756;-58
2023/04/22 04:15:53;;;;;;;66.10;27.23;;;5.90;99.90;;;;;;5068751;28;20123;-59
2023/04/22 04:18:22;;;;;;;56.58;23.48;;;6.00;99.90;;;;;;5068903;28;20055;-58
2023/04/22 04:20:50;;;;;;;63.70;24.27;;;6.10;99.90;;;;;;5069210;28;20044;-58
2023/04/22 04:23:18;;;;;;;53.15;22.48;;;6.10;99.90;;;;;;5070092;28;20045;-58
2023/04/22 04:25:46;;;;;;;57.25;21.48;;;6.10;99.90;;;;;;5059844;28;20048;-58
2023/04/22 04:28:14;;;;;;;61.42;23.02;;;6.20;99.90;;;;;;5050175;28;20400;-58
2023/04/22 04:30:41;;;;;;;54.90;23.77;;;6.20;99.90;;;;;;5051233;28;20045;-58
2023/04/22 04:33:10;;;;;;;60.75;24.95;;;6.20;99.90;;;;;;5053643;28;20044;-59
2023/04/22 04:35:43;;;;;;;64.60;23.17;;;6.20;99.90;;;;;;5060759;28;20508;-59
2023/04/22 04:38:16;;;;;;;53.85;23.67;;;6.30;99.90;;;;;;5050174;28;20119;-58
2023/04/22 04:40:44;;;;;;;64.78;23.63;;;6.30;99.90;;;;;;5053011;28;20484;-58
2023/04/22 04:43:19;;;;;;;65.15;23.10;;;6.40;99.90;;;;;;5065270;28;20051;-58
2023/04/22 04:45:52;;;;;;;56.03;23.25;;;6.40;99.90;;;;;;5060635;28;20053;-59
2023/04/22 04:48:27;;;;;;;66.22;24.15;;;6.40;99.90;;;;;;5046867;28;20037;-58
2023/04/22 04:51:06;;;;;;;56.97;23.23;;;6.40;99.90;;;;;;5049845;28;20063;-58
2023/04/22 04:53:39;;;;;;;59.25;25.15;;;6.50;99.90;;;;;;5054783;28;20058;-57
2023/04/22 04:56:07;;;;;;;62.95;23.88;;;6.50;99.90;;;;;;5066662;28;20041;-59
2023/04/22 04:58:36;;;;;;;58.45;24.00;;;6.50;99.90;;;;;;5055301;28;20919;-58
2023/04/22 05:01:17;;;;;;;54.05;21.20;;;6.50;99.90;;;;;;5082037;28;20246;-60
2023/04/22 05:03:47;;;;;;;56.23;23.13;;;6.50;99.90;;;;;;5047773;28;20041;-57
2023/04/22 05:06:18;;;;;;;64.85;23.85;;;6.50;99.90;;;;;;5052680;28;20079;-57
2023/04/22 05:08:56;;;;;;;61.70;24.13;;;6.50;99.90;;;;;;5047682;28;21492;-58
2023/04/22 05:11:24;;;;;;;58.55;23.50;;;6.50;99.90;;;;;;5047991;28;20232;-58
2023/04/22 05:13:54;;;;;;;63.08;23.45;;;6.50;99.90;;;;;;5057283;28;20053;-58
2023/04/22 05:16:28;;;;;;;62.83;23.80;;;6.40;99.90;;;;;;5042451;28;20048;-58
2023/04/22 05:18:59;;;;;;;64.32;24.48;;;6.40;99.90;;;;;;5051120;28;20053;-58
2023/04/22 05:21:26;;;;;;;59.35;24.33;;;6.40;99.90;;;;;;5067397;28;20049;-58
2023/04/22 05:23:55;;;;;;;63.45;23.20;;;6.40;99.90;;;;;;5066359;28;20047;-58
2023/04/22 05:26:24;;;;;;;61.85;24.23;;;6.40;99.90;;;;;;5059805;28;20165;-57
2023/04/22 05:28:52;;;;;;;68.65;24.35;;;6.40;99.90;;;;;;5069481;28;20044;-57
2023/04/22 05:31:21;;;;;;;67.20;24.70;;;6.40;99.90;;;;;;5067206;28;20041;-57
2023/04/22 05:33:49;;;;;;;62.40;25.75;;;6.40;99.90;;;;;;5038524;28;20079;-56
2023/04/22 05:36:17;;;;;;;60.97;24.63;;;6.50;99.90;;;;;;5051794;28;20032;-57
2023/04/22 05:38:46;;;;;;;59.97;25.15;;;6.50;99.90;;;;;;5061313;28;20056;-58
2023/04/22 05:41:15;;;;;;;58.72;24.40;;;6.50;99.90;;;;;;5065612;28;20055;-57
2023/04/22 05:43:43;;;;;;;59.90;24.45;;;6.60;99.90;;;;;;5069248;28;20040;-56
2023/04/22 05:46:15;;;;;;;56.08;23.88;;;6.60;99.90;;;;;;5064399;28;20400;-57
2023/04/22 05:48:44;;;;;;;62.85;23.42;;;6.70;99.90;;;;;;5058891;28;20044;-57
2023/04/22 05:51:31;;;;;;;59.80;23.45;;;6.70;99.90;;;;;;5049367;28;20057;-59
2023/04/22 05:54:00;;;;;;;58.28;24.52;;;6.70;99.90;;;;;;5031855;28;20055;-57
2023/04/22 05:56:28;;;;;;;62.40;24.92;;;6.80;99.90;;;;;;5029957;28;20057;-57
2023/04/22 05:58:55;;;;;;;61.33;24.90;;;6.80;99.90;;;;;;5031763;28;20507;-56
2023/04/22 06:01:24;;;;;;;61.33;23.70;;;6.90;99.90;;;;;;5010858;28;20045;-58
2023/04/22 06:03:59;;;;;;;61.45;24.30;;;6.90;99.90;;;;;;5017529;28;20485;-58
2023/04/22 06:06:31;;;;;;;60.80;24.73;;;6.90;99.90;;;;;;5040458;28;20063;-57
2023/04/22 06:08:58;;;;;;;64.55;26.00;;;7.00;99.90;;;;;;5023143;28;20041;-58
2023/04/22 06:11:27;;;;;;;59.53;23.75;;;7.00;99.90;;;;;;5048004;28;20657;-57
2023/04/22 06:13:55;;;;;;;64.30;24.15;;;7.10;99.90;;;;;;5009887;28;20049;-57
2023/04/22 06:16:23;;;;;;;69.57;26.17;;;7.10;99.90;;;;;;5025634;28;20067;-58
2023/04/22 06:18:50;;;;;;;64.32;23.90;;;7.10;99.90;;;;;;5024262;28;20400;-56
2023/04/22 06:21:20;;;;;;;59.38;23.85;;;7.20;99.90;;;;;;5019582;28;20049;-55
2023/04/22 06:23:48;;;;;;;56.60;23.45;;;7.20;99.90;;;;;;5043308;28;20061;-57
2023/04/22 06:26:17;;;;;;;66.28;23.33;;;7.20;99.90;;;;;;5047416;28;20358;-56
2023/04/22 06:28:46;;;;;;;59.73;24.50;;;7.20;99.90;;;;;;5030995;28;20526;-56
2023/04/22 06:31:18;;;;;;;55.08;23.30;;;7.20;99.90;;;;;;5028363;28;20412;-56
2023/04/22 06:33:48;;;;;;;57.75;25.30;;;7.30;99.90;;;;;;5023825;28;20417;-56
2023/04/22 06:36:16;;;;;;;62.22;24.88;;;7.30;99.90;;;;;;5013484;28;20065;-57
2023/04/22 06:38:48;;;;;;;57.88;24.27;;;7.40;99.90;;;;;;5022708;28;20049;-57
2023/04/22 06:41:39;;;;;;;58.53;22.95;;;7.40;99.90;;;;;;5026653;28;20409;-56
2023/04/22 06:44:21;;;;;;;52.88;22.30;;;7.40;99.90;;;;;;5008261;28;20065;-58
2023/04/22 06:47:07;;;;;;;57.03;23.40;;;7.40;99.90;;;;;;5034342;28;20052;-57
2023/04/22 06:49:46;;;;;;;61.72;24.52;;;7.40;99.90;;;;;;5013405;28;20049;-57
2023/04/22 06:52:23;;;;;;;54.85;23.23;;;7.50;99.90;;;;;;5027244;28;20539;-58
2023/04/22 06:54:54;;;;;;;51.67;21.83;;;7.50;99.90;;;;;;5030988;28;20147;-58
2023/04/22 06:57:25;;;;;;;60.53;23.02;;;7.50;99.90;;;;;;5026426;28;20049;-56
2023/04/22 06:59:53;;;;;;;53.38;21.52;;;7.50;99.90;;;;;;4995575;28;20080;-56
2023/04/22 07:02:21;;;;;;;51.72;21.98;;;7.60;99.90;;;;;;5011353;28;20044;-57
2023/04/22 07:04:49;;;;;;;48.85;21.83;;;7.60;99.90;;;;;;5024113;28;20045;-58
2023/04/22 07:07:17;;;;;;;42.10;19.23;;;7.60;99.90;;;;;;5043539;28;20041;-57
2023/04/22 07:09:45;;;;;;;50.00;21.55;;;7.60;99.90;;;;;;5016179;28;20056;-57
2023/04/22 07:12:13;;;;;;;50.80;21.30;;;7.70;99.90;;;;;;5047518;28;20052;-57
2023/04/22 07:14:44;;;;;;;45.70;20.48;;;7.80;99.90;;;;;;5048024;28;20526;-57
2023/04/22 07:17:12;;;;;;;52.58;20.25;;;7.80;99.90;;;;;;5042746;28;20391;-56
2023/04/22 07:19:40;;;;;;;48.30;19.70;;;7.80;99.90;;;;;;5029413;28;20049;-57
2023/04/22 07:22:08;;;;;;;46.67;20.90;;;7.80;99.90;;;;;;5042778;28;20048;-57
2023/04/22 07:24:36;;;;;;;48.95;21.23;;;7.90;99.90;;;;;;5047813;28;20060;-57
2023/04/22 07:27:04;;;;;;;38.10;19.02;;;7.90;99.90;;;;;;5025029;28;20048;-57
2023/04/22 07:29:31;;;;;;;43.30;19.60;;;8.00;99.90;;;;;;5035898;28;20041;-57
2023/04/22 07:31:59;;;;;;;46.90;20.52;;;8.00;99.90;;;;;;5047203;28;20049;-57
2023/04/22 07:34:27;;;;;;;43.60;19.67;;;8.10;99.90;;;;;;5038549;28;20508;-59
2023/04/22 07:36:54;;;;;;;39.20;18.58;;;8.10;99.90;;;;;;5029547;28;20037;-57
2023/04/22 07:39:22;;;;;;;42.97;18.42;;;8.20;99.90;;;;;;5031491;28;20048;-58
2023/04/22 07:41:50;;;;;;;46.80;21.13;;;8.20;99.90;;;;;;5008252;28;20536;-61
2023/04/22 07:44:20;;;;;;;43.67;18.90;;;8.20;99.90;;;;;;5040784;28;20489;-58
2023/04/22 07:46:49;;;;;;;41.85;19.65;;;8.30;99.90;;;;;;5028323;28;20485;-58
2023/04/22 07:49:16;;;;;;;42.67;19.75;;;8.30;99.90;;;;;;5028313;28;20038;-57
2023/04/22 07:51:44;;;;;;;42.85;19.58;;;8.40;99.90;;;;;;5048424;28;20075;-57
2023/04/22 07:54:12;;;;;;;43.10;18.52;;;8.50;99.90;;;;;;5050167;28;20512;-56
2023/04/22 07:56:40;;;;;;;38.50;17.80;;;8.50;99.90;;;;;;5058257;28;20052;-57
2023/04/22 07:59:07;;;;;;;43.65;17.70;;;8.50;99.90;;;;;;5051116;28;20041;-58
2023/04/22 08:01:36;;;;;;;42.13;19.75;;;8.60;99.90;;;;;;5045811;28;20394;-57
2023/04/22 08:04:06;;;;;;;37.03;20.25;;;8.60;99.90;;;;;;5060177;28;20047;-56
2023/04/22 08:06:34;;;;;;;42.70;21.15;;;8.70;99.90;;;;;;5062255;28;20055;-57
2023/04/22 08:09:05;;;;;;;39.67;19.17;;;8.70;99.90;;;;;;5050281;28;20527;-56
2023/04/22 08:11:34;;;;;;;40.70;18.37;;;8.80;99.90;;;;;;5055531;28;20052;-57
2023/04/22 08:14:02;;;;;;;42.90;19.58;;;8.90;99.90;;;;;;5063857;28;20037;-60
2023/04/22 08:16:29;;;;;;;36.45;18.60;;;8.90;99.90;;;;;;5065688;28;20047;-57
2023/04/22 08:19:00;;;;;;;42.08;19.70;;;8.90;99.90;;;;;;5063095;28;20056;-59
2023/04/22 08:21:28;;;;;;;37.72;18.10;;;9.00;99.90;;;;;;5058728;28;20045;-57
2023/04/22 08:23:55;;;;;;;32.25;17.02;;;9.10;99.90;;;;;;5063498;28;20049;-58
2023/04/22 08:26:24;;;;;;;46.22;19.85;;;9.20;99.90;;;;;;5062761;28;20052;-58
2023/04/22 08:28:52;;;;;;;38.38;18.65;;;9.20;99.90;;;;;;5048666;28;20049;-57
2023/04/22 08:31:20;;;;;;;38.80;18.67;;;9.30;99.90;;;;;;5052390;28;20053;-58
2023/04/22 08:33:47;;;;;;;41.13;19.15;;;9.40;99.90;;;;;;5058120;28;20048;-57
2023/04/22 08:36:15;;;;;;;43.22;18.30;;;9.50;99.90;;;;;;5051254;28;20289;-59
2023/04/22 08:38:43;;;;;;;41.75;18.50;;;9.60;99.90;;;;;;5064035;28;20059;-58
2023/04/22 08:41:11;;;;;;;38.92;18.95;;;9.70;99.90;;;;;;5062587;28;20045;-57
2023/04/22 08:43:39;;;;;;;37.80;18.42;;;9.70;99.90;;;;;;5067944;28;20060;-58
2023/04/22 08:46:07;;;;;;;32.13;16.55;;;9.80;99.90;;;;;;5069451;28;20045;-59
2023/04/22 08:48:39;;;;;;;37.28;17.52;;;10.00;99.90;;;;;;5066871;28;20041;-58
2023/04/22 08:51:10;;;;;;;37.97;19.95;;;10.10;99.90;;;;;;5057857;28;20044;-57
2023/04/22 08:53:38;;;;;;;37.25;18.38;;;10.10;99.90;;;;;;5047894;28;20053;-57
2023/04/22 08:56:06;;;;;;;35.50;17.27;;;10.30;99.90;;;;;;5028909;28;20056;-58
2023/04/22 08:58:35;;;;;;;34.70;17.27;;;10.30;99.90;;;;;;5039783;28;20050;-57
2023/04/22 09:01:04;;;;;;;37.83;17.60;;;10.40;99.90;;;;;;5046899;28;20049;-57
2023/04/22 09:03:37;;;;;;;37.45;17.58;;;10.40;99.90;;;;;;5039927;28;20048;-55
2023/04/22 09:06:08;;;;;;;31.23;15.70;;;10.50;99.90;;;;;;5041730;28;20041;-58
2023/04/22 09:08:35;;;;;;;;;;;10.50;99.90;;;;;;5041023;28;20064;-57
2023/04/22 09:11:05;;;;;;;29.40;15.03;;;10.50;99.90;;;;;;5029119;28;19931;-57
2023/04/22 09:13:36;;;;;;;31.65;14.45;;;10.50;99.90;;;;;;5029319;28;20041;-58
2023/04/22 09:16:04;;;;;;;32.45;17.20;;;10.50;99.90;;;;;;5046484;28;20412;-57
2023/04/22 09:18:46;;;;;;;29.83;15.60;;;10.50;99.90;;;;;;5036915;28;20045;-58
2023/04/22 09:21:14;;;;;;;31.45;17.02;;;10.50;99.90;;;;;;5040070;28;20044;-57
2023/04/22 09:23:49;;;;;;;34.17;17.08;;;10.40;99.90;;;;;;5042914;28;20041;-57
2023/04/22 09:26:23;;;;;;;31.77;16.35;;;10.30;99.90;;;;;;5046717;28;20053;-57
2023/04/22 09:28:57;;;;;;;30.88;15.80;;;10.30;99.90;;;;;;5047237;28;20044;-57
2023/04/22 09:31:26;;;;;;;33.22;17.40;;;10.20;99.90;;;;;;5044593;28;20049;-58
2023/04/22 09:33:59;;;;;;;31.93;15.40;;;10.20;99.90;;;;;;5045116;28;20049;-57
2023/04/22 09:36:29;;;;;;;32.72;16.42;;;10.30;99.90;;;;;;5023041;28;20071;-57
2023/04/22 09:38:58;;;;;;;31.25;16.25;;;10.30;99.90;;;;;;5044917;28;20044;-58
2023/04/22 09:41:44;;;;;;;32.28;13.88;;;10.30;99.90;;;;;;5046491;28;20512;-58
2023/04/22 09:44:16;;;;;;;26.20;13.82;;;10.50;99.90;;;;;;5047365;28;20037;-57
2023/04/22 09:46:48;;;;;;;21.85;13.07;;;10.60;99.90;;;;;;5045134;28;20057;-58
2023/04/22 09:49:16;;;;;;;28.95;14.77;;;10.70;99.90;;;;;;5020196;28;20046;-57
2023/04/22 09:51:43;;;;;;;26.02;13.10;;;11.00;99.90;;;;;;5036264;28;20096;-57
2023/04/22 09:54:11;;;;;;;24.50;12.20;;;11.10;99.90;;;;;;5048799;28;20052;-57
2023/04/22 09:56:52;;;;;;;25.40;12.55;;;11.20;99.90;;;;;;5032188;28;20045;-58
2023/04/22 09:59:30;;;;;;;25.75;13.00;;;11.40;99.90;;;;;;5025141;28;20065;-59
2023/04/22 10:01:59;;;;;;;25.27;13.75;;;11.50;99.90;;;;;;5042066;28;20879;-58
2023/04/22 10:04:27;;;;;;;23.40;13.32;;;11.70;99.90;;;;;;5046371;28;20055;-57
2023/04/22 10:06:55;;;;;;;23.88;12.27;;;11.70;99.90;;;;;;5032829;28;20056;-58
2023/04/22 10:09:24;;;;;;;23.35;13.63;;;11.80;99.90;;;;;;5037322;28;20033;-58
2023/04/22 10:11:53;;;;;;;25.10;13.40;;;11.80;99.90;;;;;;5017724;28;20056;-58
2023/04/22 10:14:22;;;;;;;28.30;15.23;;;11.80;99.90;;;;;;5046002;28;20056;-57
2023/04/22 10:16:53;;;;;;;18.10;9.25;;;12.10;99.90;;;;;;5027658;28;20037;-57
2023/04/22 10:19:25;;;;;;;19.35;9.02;;;12.10;99.90;;;;;;5044173;28;20505;-57
2023/04/22 10:22:01;;;;;;;20.88;10.27;;;12.20;99.90;;;;;;5032034;28;20053;-56
2023/04/22 10:24:35;;;;;;;18.38;10.40;;;12.20;99.90;;;;;;5048516;28;20045;-57
2023/04/22 10:27:09;;;;;;;20.20;11.05;;;12.10;99.90;;;;;;5050329;28;20414;-59
2023/04/22 10:29:42;;;;;;;21.90;10.93;;;11.90;99.90;;;;;;5044026;28;20044;-58
2023/04/22 10:32:19;;;;;;;23.50;10.93;;;11.80;99.90;;;;;;5029567;28;20048;-59
2023/04/22 10:34:48;;;;;;;28.58;15.00;;;11.70;99.90;;;;;;5048252;28;20086;-59
2023/04/22 10:37:20;;;;;;;26.92;12.90;;;11.70;99.90;;;;;;5034157;28;20424;-58
2023/04/22 10:40:09;;;;;;;23.00;12.38;;;11.80;99.90;;;;;;5038434;28;20049;-60
2023/04/22 10:42:41;;;;;;;22.25;11.07;;;11.90;99.90;;;;;;5048643;28;20478;-57
2023/04/22 10:45:13;;;;;;;16.45;9.18;;;12.00;99.90;;;;;;5049596;28;20056;-58
2023/04/22 10:47:41;;;;;;;16.95;8.68;;;12.10;99.90;;;;;;5044834;28;20405;-60
2023/04/22 10:50:12;;;;;;;17.38;9.27;;;12.20;99.90;;;;;;5037237;28;20045;-60
2023/04/22 10:52:42;;;;;;;17.25;9.52;;;12.30;99.90;;;;;;5047069;28;20051;-60
2023/04/22 10:55:09;;;;;;;20.92;11.35;;;12.40;99.90;;;;;;5049330;28;20045;-59
2023/04/22 10:57:42;;;;;;;17.17;8.85;;;12.70;99.90;;;;;;5024412;28;20052;-59
2023/04/22 11:00:25;;;;;;;12.98;7.63;;;12.60;99.90;;;;;;5049071;28;20068;-60
2023/04/22 11:03:04;;;;;;;12.60;7.10;;;12.70;99.90;;;;;;5044562;28;20049;-58
2023/04/22 11:05:34;;;;;;;8.38;5.32;;;12.80;99.90;;;;;;5044368;28;20599;-59
2023/04/22 11:08:19;;;;;;;12.93;7.85;;;12.90;99.90;;;;;;5048445;28;20060;-59
2023/04/22 11:10:49;;;;;;;14.68;8.35;;;13.00;99.90;;;;;;5046424;28;20044;-60
2023/04/22 11:13:20;;;;;;;15.57;8.65;;;13.20;99.90;;;;;;5029882;28;20064;-60
2023/04/22 11:15:50;;;;;;;15.95;8.85;;;13.30;99.90;;;;;;5049034;28;20052;-60
2023/04/22 11:18:20;;;;;;;15.43;8.73;;;13.40;99.90;;;;;;5048731;28;20056;-58
2023/04/22 11:20:49;;;;;;;15.63;8.70;;;13.60;99.90;;;;;;5047674;28;20041;-59
2023/04/22 11:23:23;;;;;;;10.80;7.37;;;13.70;99.90;;;;;;5046017;28;20480;-58
2023/04/22 11:25:56;;;;;;;10.77;6.60;;;13.80;99.90;;;;;;5048609;28;20060;-59
2023/04/22 11:28:24;;;;;;;9.95;6.03;;;13.90;99.90;;;;;;5021536;28;20057;-59
2023/04/22 11:30:52;;;;;;;8.65;5.35;;;14.00;99.90;;;;;;5028662;28;20053;-59
2023/04/22 11:33:20;;;;;;;9.00;6.13;;;14.10;99.90;;;;;;5038244;28;20048;-58
2023/04/22 11:35:49;;;;;;;10.50;6.43;;;14.20;99.30;;;;;;5039613;28;20053;-59
2023/04/22 11:38:17;;;;;;;13.52;7.00;;;14.20;99.30;;;;;;5047332;28;20060;-59
2023/04/22 11:40:46;;;;;;;15.95;8.07;;;14.20;99.10;;;;;;5048717;28;20048;-58
2023/04/22 11:43:17;;;;;;;13.85;7.68;;;14.20;99.70;;;;;;5036321;28;20049;-58
2023/04/22 11:45:45;;;;;;;;;;;14.20;99.90;;;;;;5031049;28;20045;-59
2023/04/22 11:48:13;;;;;;;13.85;7.97;;;14.30;99.90;;;;;;5029662;28;20161;-58
2023/04/22 11:50:46;;;;;;;16.30;8.40;;;14.30;99.90;;;;;;5039434;28;20049;-59
2023/04/22 11:53:19;;;;;;;14.02;8.68;;;14.20;99.90;;;;;;5037538;28;20049;-58
2023/04/22 11:55:50;;;;;;;14.80;8.93;;;14.30;99.90;;;;;;5048305;28;20056;-58
2023/04/22 11:58:23;;;;;;;14.25;9.18;;;14.30;99.90;;;;;;5047452;28;20052;-58
2023/04/22 12:00:52;;;;;;;16.90;10.48;;;14.40;99.90;;;;;;5041442;28;20512;-57
2023/04/22 12:03:27;;;;;;;15.95;9.18;;;14.30;99.90;;;;;;5036049;28;20037;-59
2023/04/22 12:05:59;;;;;;;14.40;9.07;;;14.30;99.90;;;;;;5048150;28;20420;-59
2023/04/22 12:08:43;;;;;;;16.33;8.75;;;14.30;99.90;;;;;;5031522;28;20058;-58
2023/04/22 12:11:11;;;;;;;16.33;8.70;;;14.30;99.90;;;;;;5036009;28;20095;-58
2023/04/22 12:13:45;;;;;;;15.65;9.02;;;14.20;99.90;;;;;;5045029;28;20401;-59
2023/04/22 12:16:17;;;;;;;14.98;9.07;;;14.20;99.90;;;;;;5028986;28;20046;-58
2023/04/22 12:18:53;;;;;;;16.50;8.32;;;14.10;99.90;;;;;;5010718;28;20033;-58
2023/04/22 12:21:23;;;;;;;17.30;9.15;;;14.10;99.90;;;;;;5030280;28;20056;-57
2023/04/22 12:23:58;;;;;;;16.13;9.82;;;14.10;99.90;;;;;;5041706;28;20489;-58
2023/04/22 12:26:26;;;;;;;15.40;9.27;;;14.20;99.90;;;;;;5048127;28;20056;-57
2023/04/22 12:28:59;;;;;;;16.15;9.18;;;14.30;99.90;;;;;;5029590;28;20053;-57
2023/04/22 12:31:27;;;;;;;13.05;7.80;;;14.30;99.90;;;;;;5028019;28;20129;-58
2023/04/22 12:33:55;;;;;;;13.63;8.38;;;14.40;99.90;;;;;;5023427;28;20053;-58
2023/04/22 12:36:23;;;;;;;12.32;7.43;;;14.50;99.90;;;;;;5029641;28;20063;-58
2023/04/22 12:38:52;;;;;;;14.18;8.07;;;14.50;99.20;;;;;;5028785;28;20424;-58
2023/04/22 12:41:19;;;;;;;11.95;7.55;;;14.60;98.70;;;;;;5030012;28;20639;-57
2023/04/22 12:43:47;;;;;;;9.77;7.10;;;14.70;99.50;;;;;;5044626;28;20069;-58
2023/04/22 12:46:15;;;;;;;10.45;6.97;;;14.80;99.10;;;;;;5046728;28;20045;-59
2023/04/22 12:48:43;;;;;;;10.13;6.70;;;14.80;99.40;;;;;;5035926;28;20507;-59
2023/04/22 12:51:11;;;;;;;11.57;7.25;;;15.00;96.90;;;;;;5037808;28;20044;-60
2023/04/22 12:53:38;;;;;;;11.85;7.07;;;15.10;97.00;;;;;;5060283;28;20045;-59